sensor_id;sensor_type;location;lat;lon;timestamp;pressure;altitude;pressure_sealevel;temperature;humidity
66681;BME280;53575;51.366;12.350;2023-04-28T00:02:13;100538.78;;;6.54;68.89
66681;BME280;53575;51.366;12.350;2023-04-28T00:04:38;100544.00;;;6.56;68.53
66681;BME280;53575;51.366;12.350;2023-04-28T00:07:03;100537.94;;;6.55;68.88
66681;BME280;53575;51.366;12.350;2023-04-28T00:09:29;100535.19;;;6.45;69.55
66681;BME280;53575;51.366;12.350;2023-04-28T00:11:54;100532.41;;;6.32;69.49
66681;BME280;53575;51.366;12.350;2023-04-28T00:14:20;100529.84;;;6.34;70.10
66681;BME280;53575;51.366;12.350;2023-04-28T00:16:45;100533.22;;;6.27;69.58
66681;BME280;53575;51.366;12.350;2023-04-28T00:19:11;100529.75;;;6.29;70.08
66681;BME280;53575;51.366;12.350;2023-04-28T00:21:36;100526.19;;;6.20;70.33
66681;BME280;53575;51.366;12.350;2023-04-28T00:24:02;100524.56;;;6.28;70.50
66681;BME280;53575;51.366;12.350;2023-04-28T00:26:27;100514.09;;;6.22;69.58
66681;BME280;53575;51.366;12.350;2023-04-28T00:28:52;100521.84;;;6.20;72.64
66681;BME280;53575;51.366;12.350;2023-04-28T00:31:18;100511.84;;;6.46;71.47
66681;BME280;53575;51.366;12.350;2023-04-28T00:33:44;100508.94;;;6.23;73.07
66681;BME280;53575;51.366;12.350;2023-04-28T00:36:09;100506.97;;;6.07;71.35
66681;BME280;53575;51.366;12.350;2023-04-28T00:38:36;100505.41;;;6.18;71.94
66681;BME280;53575;51.366;12.350;2023-04-28T00:41:01;100501.97;;;6.19;72.74
66681;BME280;53575;51.366;12.350;2023-04-28T00:43:27;100495.06;;;6.21;71.50
66681;BME280;53575;51.366;12.350;2023-04-28T00:45:52;100492.66;;;6.33;70.65
66681;BME280;53575;51.366;12.350;2023-04-28T00:48:18;100491.53;;;6.18;72.91
66681;BME280;53575;51.366;12.350;2023-04-28T00:50:45;100501.22;;;6.28;71.53
66681;BME280;53575;51.366;12.350;2023-04-28T00:53:11;100497.47;;;6.09;71.36
66681;BME280;53575;51.366;12.350;2023-04-28T00:55:37;100491.53;;;6.15;72.44
66681;BME280;53575;51.366;12.350;2023-04-28T00:58:04;100494.75;;;6.01;71.74
66681;BME280;53575;51.366;12.350;2023-04-28T01:00:30;100489.50;;;5.97;71.02
66681;BME280;53575;51.366;12.350;2023-04-28T01:02:56;100490.50;;;6.03;72.78
66681;BME280;53575;51.366;12.350;2023-04-28T01:05:24;100483.50;;;5.99;72.24
66681;BME280;53575;51.366;12.350;2023-04-28T01:07:49;100491.31;;;6.01;72.90
66681;BME280;53575;51.366;12.350;2023-04-28T01:10:15;100481.00;;;6.05;72.84
66681;BME280;53575;51.366;12.350;2023-04-28T01:12:40;100474.06;;;6.03;73.71
66681;BME280;53575;51.366;12.350;2023-04-28T01:15:08;100479.94;;;5.94;71.47
66681;BME280;53575;51.366;12.350;2023-04-28T01:17:36;100476.50;;;5.95;71.88
66681;BME280;53575;51.366;12.350;2023-04-28T01:20:02;100471.53;;;6.09;74.19
66681;BME280;53575;51.366;12.350;2023-04-28T01:22:28;100475.91;;;6.12;72.42
66681;BME280;53575;51.366;12.350;2023-04-28T01:24:54;100461.94;;;6.03;72.47
66681;BME280;53575;51.366;12.350;2023-04-28T01:27:19;100467.03;;;5.97;72.19
66681;BME280;53575;51.366;12.350;2023-04-28T01:29:45;100461.69;;;5.90;72.07
66681;BME280;53575;51.366;12.350;2023-04-28T01:32:10;100455.59;;;5.86;71.56
66681;BME280;53575;51.366;12.350;2023-04-28T01:34:36;100455.84;;;6.01;71.70
66681;BME280;53575;51.366;12.350;2023-04-28T01:37:01;100454.16;;;6.03;71.97
66681;BME280;53575;51.366;12.350;2023-04-28T01:39:26;100453.22;;;5.98;71.32
66681;BME280;53575;51.366;12.350;2023-04-28T01:41:52;100454.72;;;5.85;72.27
66681;BME280;53575;51.366;12.350;2023-04-28T01:44:17;100455.53;;;5.81;73.32
66681;BME280;53575;51.366;12.350;2023-04-28T01:46:43;100451.31;;;5.90;73.77
66681;BME280;53575;51.366;12.350;2023-04-28T01:49:08;100451.53;;;6.02;73.25
66681;BME280;53575;51.366;12.350;2023-04-28T01:51:34;100449.84;;;6.04;72.49
66681;BME280;53575;51.366;12.350;2023-04-28T01:53:59;100445.47;;;6.00;72.16
66681;BME280;53575;51.366;12.350;2023-04-28T01:56:24;100444.56;;;5.98;71.41
66681;BME280;53575;51.366;12.350;2023-04-28T01:58:50;100443.53;;;5.90;72.38
66681;BME280;53575;51.366;12.350;2023-04-28T02:01:16;100442.13;;;6.08;73.35
66681;BME280;53575;51.366;12.350;2023-04-28T02:03:41;100436.16;;;6.16;71.99
66681;BME280;53575;51.366;12.350;2023-04-28T02:06:07;100424.06;;;6.18;71.98
66681;BME280;53575;51.366;12.350;2023-04-28T02:08:32;100418.72;;;6.04;71.46
66681;BME280;53575;51.366;12.350;2023-04-28T02:10:57;100417.59;;;5.90;72.59
66681;BME280;53575;51.366;12.350;2023-04-28T02:13:23;100414.16;;;5.91;72.96
66681;BME280;53575;51.366;12.350;2023-04-28T02:15:48;100422.34;;;6.17;72.69
66681;BME280;53575;51.366;12.350;2023-04-28T02:18:14;100415.47;;;6.19;73.27
66681;BME280;53575;51.366;12.350;2023-04-28T02:20:39;100417.16;;;6.17;72.86
66681;BME280;53575;51.366;12.350;2023-04-28T02:23:05;100410.38;;;6.26;72.93
66681;BME280;53575;51.366;12.350;2023-04-28T02:25:30;100405.91;;;6.15;71.48
66681;BME280;53575;51.366;12.350;2023-04-28T02:27:56;100408.56;;;6.21;70.93
66681;BME280;53575;51.366;12.350;2023-04-28T02:30:21;100401.53;;;6.12;73.03
66681;BME280;53575;51.366;12.350;2023-04-28T02:32:47;100397.34;;;6.23;72.82
66681;BME280;53575;51.366;12.350;2023-04-28T02:35:13;100400.00;;;6.29;72.15
66681;BME280;53575;51.366;12.350;2023-04-28T02:37:38;100400.81;;;6.22;72.80
66681;BME280;53575;51.366;12.350;2023-04-28T02:40:04;100389.63;;;6.26;72.04
66681;BME280;53575;51.366;12.350;2023-04-28T02:42:31;100392.16;;;6.25;71.33
66681;BME280;53575;51.366;12.350;2023-04-28T02:44:56;100391.44;;;6.33;71.46
66681;BME280;53575;51.366;12.350;2023-04-28T02:47:22;100386.97;;;6.25;70.47
66681;BME280;53575;51.366;12.350;2023-04-28T02:49:47;100388.75;;;6.29;72.93
66681;BME280;53575;51.366;12.350;2023-04-28T02:52:12;100393.94;;;6.29;70.23
66681;BME280;53575;51.366;12.350;2023-04-28T02:54:38;100378.38;;;6.27;70.32
66681;BME280;53575;51.366;12.350;2023-04-28T02:57:03;100380.25;;;6.38;69.79
66681;BME280;53575;51.366;12.350;2023-04-28T02:59:29;100387.25;;;6.48;70.94
66681;BME280;53575;51.366;12.350;2023-04-28T03:01:55;100380.50;;;6.64;70.03
66681;BME280;53575;51.366;12.350;2023-04-28T03:04:21;100373.56;;;6.61;68.96
66681;BME280;53575;51.366;12.350;2023-04-28T03:06:46;100382.31;;;6.71;70.22
66681;BME280;53575;51.366;12.350;2023-04-28T03:09:11;100384.03;;;6.69;68.88
66681;BME280;53575;51.366;12.350;2023-04-28T03:11:38;100378.03;;;6.73;68.42
66681;BME280;53575;51.366;12.350;2023-04-28T03:14:03;100365.88;;;6.70;68.91
66681;BME280;53575;51.366;12.350;2023-04-28T03:16:28;100371.88;;;6.68;68.04
66681;BME280;53575;51.366;12.350;2023-04-28T03:18:54;100366.84;;;6.80;69.38
66681;BME280;53575;51.366;12.350;2023-04-28T03:21:19;100363.22;;;6.66;69.24
66681;BME280;53575;51.366;12.350;2023-04-28T03:23:45;100358.00;;;6.63;68.87
66681;BME280;53575;51.366;12.350;2023-04-28T03:26:10;100351.28;;;6.81;68.85
66681;BME280;53575;51.366;12.350;2023-04-28T03:28:35;100344.31;;;6.76;68.33
66681;BME280;53575;51.366;12.350;2023-04-28T03:31:01;100335.50;;;6.63;68.59
66681;BME280;53575;51.366;12.350;2023-04-28T03:33:27;100343.25;;;6.57;69.33
66681;BME280;53575;51.366;12.350;2023-04-28T03:35:52;100331.16;;;6.64;68.90
66681;BME280;53575;51.366;12.350;2023-04-28T03:38:18;100333.72;;;6.59;69.14
66681;BME280;53575;51.366;12.350;2023-04-28T03:40:44;100328.41;;;6.47;68.65
66681;BME280;53575;51.366;12.350;2023-04-28T03:43:09;100326.69;;;6.46;68.71
66681;BME280;53575;51.366;12.350;2023-04-28T03:45:35;100319.00;;;6.58;69.40
66681;BME280;53575;51.366;12.350;2023-04-28T03:48:00;100316.25;;;6.44;70.52
66681;BME280;53575;51.366;12.350;2023-04-28T03:50:26;100311.97;;;6.48;70.62
66681;BME280;53575;51.366;12.350;2023-04-28T03:52:51;100311.03;;;6.38;70.84
66681;BME280;53575;51.366;12.350;2023-04-28T03:55:17;100301.38;;;6.26;71.90
66681;BME280;53575;51.366;12.350;2023-04-28T03:57:42;100301.47;;;6.37;71.96
66681;BME280;53575;51.366;12.350;2023-04-28T04:00:08;100307.56;;;6.38;72.25
66681;BME280;53575;51.366;12.350;2023-04-28T04:02:34;100310.94;;;6.30;72.97
66681;BME280;53575;51.366;12.350;2023-04-28T04:04:59;100310.13;;;6.34;73.93
66681;BME280;53575;51.366;12.350;2023-04-28T04:07:25;100298.88;;;6.37;72.57
66681;BME280;53575;51.366;12.350;2023-04-28T04:09:50;100298.88;;;6.37;72.44
66681;BME280;53575;51.366;12.350;2023-04-28T04:12:16;100291.09;;;6.35;71.79
66681;BME280;53575;51.366;12.350;2023-04-28T04:14:41;100296.41;;;6.48;73.75
66681;BME280;53575;51.366;12.350;2023-04-28T04:17:07;100295.50;;;6.44;72.14
66681;BME280;53575;51.366;12.350;2023-04-28T04:19:33;100299.91;;;6.50;73.04
66681;BME280;53575;51.366;12.350;2023-04-28T04:21:58;100301.75;;;6.62;72.52
66681;BME280;53575;51.366;12.350;2023-04-28T04:24:23;100294.06;;;6.74;72.04
66681;BME280;53575;51.366;12.350;2023-04-28T04:26:49;100288.78;;;6.65;70.61
66681;BME280;53575;51.366;12.350;2023-04-28T04:29:14;100289.69;;;6.70;72.08
66681;BME280;53575;51.366;12.350;2023-04-28T04:31:40;100285.44;;;6.78;70.53
66681;BME280;53575;51.366;12.350;2023-04-28T04:34:05;100284.53;;;6.74;70.84
66681;BME280;53575;51.366;12.350;2023-04-28T04:36:31;100276.97;;;7.02;71.60
66681;BME280;53575;51.366;12.350;2023-04-28T04:38:57;100277.88;;;7.05;71.94
66681;BME280;53575;51.366;12.350;2023-04-28T04:41:25;100275.25;;;7.04;69.12
66681;BME280;53575;51.366;12.350;2023-04-28T04:43:51;100273.50;;;7.00;69.69
66681;BME280;53575;51.366;12.350;2023-04-28T04:46:16;100274.31;;;6.91;68.77
66681;BME280;53575;51.366;12.350;2023-04-28T04:48:42;100269.13;;;6.93;68.76
66681;BME280;53575;51.366;12.350;2023-04-28T04:51:07;100265.56;;;6.80;71.08
66681;BME280;53575;51.366;12.350;2023-04-28T04:53:33;100268.34;;;7.04;70.68
66681;BME280;53575;51.366;12.350;2023-04-28T04:55:58;100264.00;;;7.03;69.22
66681;BME280;53575;51.366;12.350;2023-04-28T04:58:24;100266.69;;;7.14;69.33
66681;BME280;53575;51.366;12.350;2023-04-28T05:00:49;100264.09;;;7.17;68.57
66681;BME280;53575;51.366;12.350;2023-04-28T05:03:15;100263.34;;;7.33;69.77
66681;BME280;53575;51.366;12.350;2023-04-28T05:05:40;100265.06;;;7.30;69.81
66681;BME280;53575;51.366;12.350;2023-04-28T05:08:06;100263.34;;;7.33;70.28
66681;BME280;53575;51.366;12.350;2023-04-28T05:10:31;100255.56;;;7.38;68.09
66681;BME280;53575;51.366;12.350;2023-04-28T05:12:57;100257.34;;;7.47;68.67
66681;BME280;53575;51.366;12.350;2023-04-28T05:15:22;100256.53;;;7.54;68.31
66681;BME280;53575;51.366;12.350;2023-04-28T05:17:47;100254.81;;;7.62;69.21
66681;BME280;53575;51.366;12.350;2023-04-28T05:20:13;100252.31;;;7.80;68.87
66681;BME280;53575;51.366;12.350;2023-04-28T05:22:39;100260.16;;;7.88;67.26
66681;BME280;53575;51.366;12.350;2023-04-28T05:25:05;100257.59;;;7.99;68.24
66681;BME280;53575;51.366;12.350;2023-04-28T05:27:31;100262.81;;;8.03;68.35
66681;BME280;53575;51.366;12.350;2023-04-28T05:29:56;100251.56;;;8.20;66.39
66681;BME280;53575;51.366;12.350;2023-04-28T05:32:21;100249.84;;;8.31;68.60
66681;BME280;53575;51.366;12.350;2023-04-28T05:34:47;100247.31;;;8.49;66.64
66681;BME280;53575;51.366;12.350;2023-04-28T05:37:12;100240.34;;;8.38;65.24
66681;BME280;53575;51.366;12.350;2023-04-28T05:39:38;100243.84;;;8.49;66.55
66681;BME280;53575;51.366;12.350;2023-04-28T05:42:03;100235.16;;;8.65;66.25
66681;BME280;53575;51.366;12.350;2023-04-28T05:44:30;100242.13;;;8.69;64.03
66681;BME280;53575;51.366;12.350;2023-04-28T05:46:55;100233.47;;;8.78;64.59
66681;BME280;53575;51.366;12.350;2023-04-28T05:49:20;100229.94;;;8.96;63.47
66681;BME280;53575;51.366;12.350;2023-04-28T05:51:46;100233.41;;;9.15;63.49
66681;BME280;53575;51.366;12.350;2023-04-28T05:54:11;100222.06;;;9.30;62.40
66681;BME280;53575;51.366;12.350;2023-04-28T05:56:36;100222.97;;;9.28;62.22
66681;BME280;53575;51.366;12.350;2023-04-28T05:59:02;100216.81;;;9.49;62.43
66681;BME280;53575;51.366;12.350;2023-04-28T06:01:29;100217.66;;;9.59;60.62
66681;BME280;53575;51.366;12.350;2023-04-28T06:03:55;100222.81;;;9.77;61.10
66681;BME280;53575;51.366;12.350;2023-04-28T06:06:22;100214.06;;;9.86;61.94
66681;BME280;53575;51.366;12.350;2023-04-28T06:08:48;100220.88;;;10.07;60.09
66681;BME280;53575;51.366;12.350;2023-04-28T06:11:13;100224.31;;;10.18;59.56
66681;BME280;53575;51.366;12.350;2023-04-28T06:13:39;100233.06;;;10.13;59.32
66681;BME280;53575;51.366;12.350;2023-04-28T06:16:05;100226.13;;;10.02;59.17
66681;BME280;53575;51.366;12.350;2023-04-28T06:18:30;100221.81;;;10.01;61.49
66681;BME280;53575;51.366;12.350;2023-04-28T06:20:58;100218.31;;;10.04;60.71
66681;BME280;53575;51.366;12.350;2023-04-28T06:23:24;100226.06;;;10.16;58.42
66681;BME280;53575;51.366;12.350;2023-04-28T06:25:49;100222.47;;;10.37;60.41
66681;BME280;53575;51.366;12.350;2023-04-28T06:28:15;100222.28;;;10.66;56.86
66681;BME280;53575;51.366;12.350;2023-04-28T06:30:40;100213.41;;;10.83;56.03
66681;BME280;53575;51.366;12.350;2023-04-28T06:33:06;100215.91;;;10.98;55.39
66681;BME280;53575;51.366;12.350;2023-04-28T06:35:32;100204.38;;;11.17;55.17
66681;BME280;53575;51.366;12.350;2023-04-28T06:38:01;100211.28;;;11.21;54.31
66681;BME280;53575;51.366;12.350;2023-04-28T06:40:26;100202.44;;;11.35;55.32
66681;BME280;53575;51.366;12.350;2023-04-28T06:42:51;100202.47;;;11.32;54.55
66681;BME280;53575;51.366;12.350;2023-04-28T06:45:17;100201.34;;;11.54;53.56
66681;BME280;53575;51.366;12.350;2023-04-28T06:47:42;100200.41;;;11.61;54.25
66681;BME280;53575;51.366;12.350;2023-04-28T06:50:08;100193.25;;;11.76;53.94
66681;BME280;53575;51.366;12.350;2023-04-28T06:52:33;100189.16;;;11.53;55.48
66681;BME280;53575;51.366;12.350;2023-04-28T06:54:59;100194.97;;;11.77;54.50
66681;BME280;53575;51.366;12.350;2023-04-28T06:57:25;100196.28;;;12.11;53.17
66681;BME280;53575;51.366;12.350;2023-04-28T06:59:50;100186.22;;;12.41;52.56
66681;BME280;53575;51.366;12.350;2023-04-28T07:02:15;100185.78;;;12.68;51.71
66681;BME280;53575;51.366;12.350;2023-04-28T07:04:41;100169.41;;;12.54;51.98
66681;BME280;53575;51.366;12.350;2023-04-28T07:07:07;100184.53;;;12.89;52.16
66681;BME280;53575;51.366;12.350;2023-04-28T07:09:35;100172.03;;;13.05;51.14
66681;BME280;53575;51.366;12.350;2023-04-28T07:12:01;100174.72;;;13.01;52.05
66681;BME280;53575;51.366;12.350;2023-04-28T07:14:28;100175.06;;;12.81;51.98
66681;BME280;53575;51.366;12.350;2023-04-28T07:16:54;100175.38;;;12.64;52.12
66681;BME280;53575;51.366;12.350;2023-04-28T07:19:19;100176.88;;;12.77;52.53
66681;BME280;53575;51.366;12.350;2023-04-28T07:21:44;100173.38;;;12.24;55.09
66681;BME280;53575;51.366;12.350;2023-04-28T07:24:10;100169.41;;;12.54;53.62
66681;BME280;53575;51.366;12.350;2023-04-28T07:26:36;100167.16;;;12.84;52.61
66681;BME280;53575;51.366;12.350;2023-04-28T07:29:01;100164.41;;;12.91;51.97
66681;BME280;53575;51.366;12.350;2023-04-28T07:31:26;100163.81;;;13.25;50.53
66681;BME280;53575;51.366;12.350;2023-04-28T07:33:53;100159.16;;;13.38;49.87
66681;BME280;53575;51.366;12.350;2023-04-28T07:36:18;100152.94;;;13.44;50.42
66681;BME280;53575;51.366;12.350;2023-04-28T07:38:44;100156.31;;;13.49;51.49
66681;BME280;53575;51.366;12.350;2023-04-28T07:41:09;100161.19;;;13.67;49.74
66681;BME280;53575;51.366;12.350;2023-04-28T07:43:35;100170.19;;;13.97;49.57
66681;BME280;53575;51.366;12.350;2023-04-28T07:46:00;100172.75;;;13.99;47.75
66681;BME280;53575;51.366;12.350;2023-04-28T07:48:26;100163.72;;;14.10;49.02
66681;BME280;53575;51.366;12.350;2023-04-28T07:50:52;100158.13;;;14.26;49.05
66681;BME280;53575;51.366;12.350;2023-04-28T07:53:18;100150.81;;;14.38;48.39
66681;BME280;53575;51.366;12.350;2023-04-28T07:55:43;100155.09;;;14.78;47.34
66681;BME280;53575;51.366;12.350;2023-04-28T07:58:10;100147.44;;;15.03;47.08
66681;BME280;53575;51.366;12.350;2023-04-28T08:00:36;100140.84;;;15.18;46.30
66681;BME280;53575;51.366;12.350;2023-04-28T08:03:02;100139.69;;;15.28;46.46
66681;BME280;53575;51.366;12.350;2023-04-28T08:05:27;100132.31;;;15.10;45.96
66681;BME280;53575;51.366;12.350;2023-04-28T08:07:53;100139.97;;;15.19;46.43
66681;BME280;53575;51.366;12.350;2023-04-28T08:10:18;100140.13;;;15.44;45.89
66681;BME280;53575;51.366;12.350;2023-04-28T08:12:44;100138.75;;;15.60;45.26
66681;BME280;53575;51.366;12.350;2023-04-28T08:15:10;100143.38;;;15.54;46.85
66681;BME280;53575;51.366;12.350;2023-04-28T08:17:36;100138.00;;;15.27;45.61
66681;BME280;53575;51.366;12.350;2023-04-28T08:20:02;100139.06;;;15.20;45.59
66681;BME280;53575;51.366;12.350;2023-04-28T08:22:27;100136.75;;;14.77;46.23
66681;BME280;53575;51.366;12.350;2023-04-28T08:24:53;100140.81;;;14.89;47.53
66681;BME280;53575;51.366;12.350;2023-04-28T08:27:18;100136.69;;;15.11;47.25
66681;BME280;53575;51.366;12.350;2023-04-28T08:29:43;100136.06;;;15.32;46.19
66681;BME280;53575;51.366;12.350;2023-04-28T08:32:09;100140.41;;;15.66;45.94
66681;BME280;53575;51.366;12.350;2023-04-28T08:34:34;100137.88;;;15.62;45.90
66681;BME280;53575;51.366;12.350;2023-04-28T08:37:00;100137.81;;;15.63;46.24
66681;BME280;53575;51.366;12.350;2023-04-28T08:39:25;100139.09;;;15.50;45.30
66681;BME280;53575;51.366;12.350;2023-04-28T08:41:52;100149.81;;;15.13;46.72
66681;BME280;53575;51.366;12.350;2023-04-28T08:44:18;100151.13;;;14.96;47.56
66681;BME280;53575;51.366;12.350;2023-04-28T08:46:44;100141.53;;;14.94;48.01
66681;BME280;53575;51.366;12.350;2023-04-28T08:49:15;100143.25;;;14.95;48.01
66681;BME280;53575;51.366;12.350;2023-04-28T08:51:59;100149.38;;;14.95;49.06
66681;BME280;53575;51.366;12.350;2023-04-28T08:54:30;100142.53;;;14.90;49.55
66681;BME280;53575;51.366;12.350;2023-04-28T08:56:56;100152.59;;;14.74;51.30
66681;BME280;53575;51.366;12.350;2023-04-28T08:59:22;100152.97;;;14.58;52.91
66681;BME280;53575;51.366;12.350;2023-04-28T09:01:48;100158.53;;;14.45;53.17
66681;BME280;53575;51.366;12.350;2023-04-28T09:04:18;100159.63;;;14.36;53.47
66681;BME280;53575;51.366;12.350;2023-04-28T09:06:43;100153.41;;;14.40;53.47
66681;BME280;53575;51.366;12.350;2023-04-28T09:09:23;100146.69;;;14.28;54.18
66681;BME280;53575;51.366;12.350;2023-04-28T09:12:00;100153.91;;;14.19;54.71
66681;BME280;53575;51.366;12.350;2023-04-28T09:14:30;100149.72;;;14.10;54.69
66681;BME280;53575;51.366;12.350;2023-04-28T09:16:57;100145.38;;;14.09;56.01
66681;BME280;53575;51.366;12.350;2023-04-28T09:19:23;100150.59;;;14.10;56.50
66681;BME280;53575;51.366;12.350;2023-04-28T09:21:52;100149.44;;;14.22;58.96
66681;BME280;53575;51.366;12.350;2023-04-28T09:24:31;100152.72;;;14.32;62.12
66681;BME280;53575;51.366;12.350;2023-04-28T09:27:02;100149.91;;;14.39;60.21
66681;BME280;53575;51.366;12.350;2023-04-28T09:29:29;100143.19;;;14.63;59.04
66681;BME280;53575;51.366;12.350;2023-04-28T09:32:16;100148.50;;;14.62;59.77
66681;BME280;53575;51.366;12.350;2023-04-28T09:34:43;100148.66;;;14.56;61.75
66681;BME280;53575;51.366;12.350;2023-04-28T09:37:20;100141.78;;;14.50;63.22
66681;BME280;53575;51.366;12.350;2023-04-28T09:39:48;100142.84;;;14.77;61.67
66681;BME280;53575;51.366;12.350;2023-04-28T09:44:59;100136.09;;;14.31;63.68
66681;BME280;53575;51.366;12.350;2023-04-28T09:47:26;100140.81;;;14.17;63.38
66681;BME280;53575;51.366;12.350;2023-04-28T09:49:55;100138.03;;;14.23;65.47
66681;BME280;53575;51.366;12.350;2023-04-28T09:52:22;100146.63;;;14.30;65.95
66681;BME280;53575;51.366;12.350;2023-04-28T09:54:53;100149.25;;;13.93;66.42
66681;BME280;53575;51.366;12.350;2023-04-28T09:57:19;100145.94;;;14.22;65.87
66681;BME280;53575;51.366;12.350;2023-04-28T09:59:50;100142.28;;;14.29;67.16
66681;BME280;53575;51.366;12.350;2023-04-28T10:02:17;100146.44;;;14.39;65.67
66681;BME280;53575;51.366;12.350;2023-04-28T10:04:48;100143.00;;;14.35;66.44
66681;BME280;53575;51.366;12.350;2023-04-28T10:07:15;100147.47;;;14.30;67.75
66681;BME280;53575;51.366;12.350;2023-04-28T10:09:42;100142.31;;;14.27;65.46
66681;BME280;53575;51.366;12.350;2023-04-28T10:12:18;100146.25;;;14.09;66.97
66681;BME280;53575;51.366;12.350;2023-04-28T10:14:45;100143.44;;;14.15;67.98
66681;BME280;53575;51.366;12.350;2023-04-28T10:17:15;100140.94;;;13.72;71.57
66681;BME280;53575;51.366;12.350;2023-04-28T10:19:43;100140.16;;;14.07;70.78
66681;BME280;53575;51.366;12.350;2023-04-28T10:22:18;100134.13;;;14.39;67.63
66681;BME280;53575;51.366;12.350;2023-04-28T10:27:44;100112.97;;;14.80;66.24
66681;BME280;53575;51.366;12.350;2023-04-28T10:30:22;100115.28;;;14.92;67.86
66681;BME280;53575;51.366;12.350;2023-04-28T10:35:45;100106.09;;;14.74;69.43
66681;BME280;53575;51.366;12.350;2023-04-28T10:38:17;100111.47;;;14.34;71.75
66681;BME280;53575;51.366;12.350;2023-04-28T10:40:46;100101.84;;;14.69;70.72
66681;BME280;53575;51.366;12.350;2023-04-28T10:43:32;100100.66;;;14.80;70.00
66681;BME280;53575;51.366;12.350;2023-04-28T10:56:11;100103.72;;;14.29;71.14
66681;BME280;53575;51.366;12.350;2023-04-28T10:58:38;100101.34;;;14.19;71.93
66681;BME280;53575;51.366;12.350;2023-04-28T11:04:05;100092.88;;;13.69;75.68
66681;BME280;53575;51.366;12.350;2023-04-28T11:06:43;100098.38;;;13.58;77.03
66681;BME280;53575;51.366;12.350;2023-04-28T11:16:55;100090.97;;;13.36;78.42
66681;BME280;53575;51.366;12.350;2023-04-28T11:19:25;100090.75;;;13.47;78.85
66681;BME280;53575;51.366;12.350;2023-04-28T11:21:52;100090.13;;;13.34;80.16
66681;BME280;53575;51.366;12.350;2023-04-28T11:24:25;100081.63;;;13.20;79.73
66681;BME280;53575;51.366;12.350;2023-04-28T11:26:51;100085.81;;;13.32;79.65
66681;BME280;53575;51.366;12.350;2023-04-28T11:29:38;100086.19;;;13.55;79.44
66681;BME280;53575;51.366;12.350;2023-04-28T11:32:06;100087.44;;;13.78;78.64
66681;BME280;53575;51.366;12.350;2023-04-28T11:34:32;100074.16;;;13.84;78.47
66681;BME280;53575;51.366;12.350;2023-04-28T11:36:57;100073.03;;;13.94;80.46
66681;BME280;53575;51.366;12.350;2023-04-28T11:39:31;100077.38;;;13.95;79.21
66681;BME280;53575;51.366;12.350;2023-04-28T11:41:58;100070.34;;;13.97;79.26
66681;BME280;53575;51.366;12.350;2023-04-28T11:44:26;100070.53;;;13.89;80.21
66681;BME280;53575;51.366;12.350;2023-04-28T11:46:53;100068.59;;;13.96;80.25
66681;BME280;53575;51.366;12.350;2023-04-28T11:49:21;100055.84;;;14.17;79.63
66681;BME280;53575;51.366;12.350;2023-04-28T11:51:49;100048.47;;;13.97;80.75
66681;BME280;53575;51.366;12.350;2023-04-28T11:54:28;100052.56;;;14.08;82.95
66681;BME280;53575;51.366;12.350;2023-04-28T11:56:55;100039.19;;;14.52;79.50
66681;BME280;53575;51.366;12.350;2023-04-28T11:59:26;100034.50;;;14.96;78.59
66681;BME280;53575;51.366;12.350;2023-04-28T12:01:53;100035.63;;;15.76;75.89
66681;BME280;53575;51.366;12.350;2023-04-28T12:04:45;100024.19;;;16.80;71.51
66681;BME280;53575;51.366;12.350;2023-04-28T12:07:17;100024.25;;;16.27;71.58
66681;BME280;53575;51.366;12.350;2023-04-28T12:12:31;100016.03;;;17.78;66.45
66681;BME280;53575;51.366;12.350;2023-04-28T12:15:03;100012.66;;;18.17;62.46
66681;BME280;53575;51.366;12.350;2023-04-28T12:20:06;100030.09;;;17.79;62.02
66681;BME280;53575;51.366;12.350;2023-04-28T12:25:12;100016.16;;;16.83;66.82
66681;BME280;53575;51.366;12.350;2023-04-28T12:27:39;100015.72;;;16.45;67.59
66681;BME280;53575;51.366;12.350;2023-04-28T12:32:46;100003.97;;;16.54;66.98
66681;BME280;53575;51.366;12.350;2023-04-28T12:35:11;100004.81;;;16.54;65.55
66681;BME280;53575;51.366;12.350;2023-04-28T12:37:37;99996.44;;;16.68;65.73
66681;BME280;53575;51.366;12.350;2023-04-28T12:40:04;100003.31;;;16.72;66.15
66681;BME280;53575;51.366;12.350;2023-04-28T12:42:31;99999.00;;;16.20;66.20
66681;BME280;53575;51.366;12.350;2023-04-28T12:44:56;100001.59;;;15.95;67.58
66681;BME280;53575;51.366;12.350;2023-04-28T12:47:23;99996.91;;;15.78;69.47
66681;BME280;53575;51.366;12.350;2023-04-28T12:49:48;100000.53;;;15.74;70.62
66681;BME280;53575;51.366;12.350;2023-04-28T12:52:17;99994.34;;;16.01;68.99
66681;BME280;53575;51.366;12.350;2023-04-28T12:54:43;99996.00;;;16.55;67.83
66681;BME280;53575;51.366;12.350;2023-04-28T12:57:20;99991.59;;;16.31;67.54
66681;BME280;53575;51.366;12.350;2023-04-28T12:59:46;99991.06;;;16.46;68.36
66681;BME280;53575;51.366;12.350;2023-04-28T13:02:13;100000.09;;;16.39;69.41
66681;BME280;53575;51.366;12.350;2023-04-28T13:04:40;99990.22;;;16.44;69.00
66681;BME280;53575;51.366;12.350;2023-04-28T13:07:07;99977.59;;;16.29;68.92
66681;BME280;53575;51.366;12.350;2023-04-28T13:09:33;99982.47;;;16.41;67.88
66681;BME280;53575;51.366;12.350;2023-04-28T13:11:59;99980.72;;;16.15;70.03
66681;BME280;53575;51.366;12.350;2023-04-28T13:14:25;99966.66;;;16.40;68.32
66681;BME280;53575;51.366;12.350;2023-04-28T13:16:51;99959.69;;;16.39;70.37
66681;BME280;53575;51.366;12.350;2023-04-28T13:19:16;99956.19;;;16.38;69.87
66681;BME280;53575;51.366;12.350;2023-04-28T13:21:42;99964.84;;;16.17;70.40
66681;BME280;53575;51.366;12.350;2023-04-28T13:24:09;99961.47;;;15.87;72.70